createdAt,value
2019-05-17T00:01:07.618Z,64.00
2019-05-17T00:03:37.501Z,64.12
2019-05-17T00:06:07.130Z,63.30
2019-05-17T00:08:38.207Z,63.18
2019-05-17T00:11:08.338Z,63.08
2019-05-17T00:13:38.890Z,63.64
2019-05-17T00:16:08.678Z,64.00
2019-05-17T00:18:38.299Z,63.27
2019-05-17T00:21:07.955Z,63.34
2019-05-17T00:23:37.688Z,63.44
2019-05-17T00:26:07.464Z,63.64
2019-05-17T00:28:37.597Z,63.23
2019-05-17T00:31:07.615Z,63.74
2019-05-17T00:33:37.316Z,64.00
2019-05-17T00:36:07.191Z,64.31
2019-05-17T00:38:47.883Z,64.42
2019-05-17T00:41:08.330Z,64.05
2019-05-17T00:43:37.935Z,64.63
2019-05-17T00:46:07.657Z,64.54
2019-05-17T00:48:37.467Z,63.97
2019-05-17T00:51:10.287Z,63.99
2019-05-17T00:53:38.599Z,64.29
2019-05-17T00:56:08.223Z,64.45
2019-05-17T00:58:37.874Z,63.74
2019-05-17T01:01:08.467Z,63.74
2019-05-17T01:03:38.339Z,64.00
2019-05-17T01:06:07.971Z,64.06
2019-05-17T01:08:37.632Z,64.48
2019-05-17T01:11:07.517Z,64.80
2019-05-17T01:13:37.578Z,65.00
2019-05-17T01:16:07.555Z,64.43
2019-05-17T01:18:37.366Z,64.17
2019-05-17T01:21:08.133Z,64.14
2019-05-17T01:23:37.761Z,64.60
2019-05-17T01:26:07.731Z,64.49
2019-05-17T01:28:37.454Z,64.62
2019-05-17T01:31:07.111Z,64.03
2019-05-17T01:33:36.995Z,63.87
2019-05-17T01:36:07.043Z,64.17
2019-05-17T01:38:37.734Z,64.59
2019-05-17T01:41:07.586Z,64.91
2019-05-17T01:43:37.217Z,64.90
2019-05-17T01:46:06.929Z,64.46
2019-05-17T01:48:36.776Z,64.46
2019-05-17T01:51:07.533Z,64.72
2019-05-17T01:53:37.426Z,65.07
2019-05-17T01:56:07.123Z,65.07
2019-05-17T01:58:36.769Z,65.70
2019-05-17T02:01:07.628Z,65.74
2019-05-17T02:03:37.710Z,65.64
2019-05-17T02:06:07.732Z,65.95
2019-05-17T02:08:37.532Z,66.17
2019-05-17T02:11:07.220Z,66.44
2019-05-17T02:13:37.556Z,65.43
2019-05-17T02:16:07.622Z,65.46
2019-05-17T02:18:37.463Z,65.71
2019-05-17T02:21:07.325Z,65.81
2019-05-17T02:23:37.345Z,65.27
2019-05-17T02:26:07.418Z,65.64
2019-05-17T02:28:37.106Z,65.42
2019-05-17T02:31:06.891Z,64.86
2019-05-17T02:33:36.730Z,65.23
2019-05-17T02:36:06.437Z,65.46
2019-05-17T02:38:36.061Z,65.67
2019-05-17T02:41:05.776Z,65.42
2019-05-17T02:43:35.565Z,65.37
2019-05-17T02:46:05.517Z,64.52
2019-05-17T02:48:35.161Z,64.67
2019-05-17T02:51:04.845Z,65.18
2019-05-17T02:53:34.551Z,65.30
2019-05-17T02:56:04.243Z,65.68
2019-05-17T02:58:33.885Z,65.21
2019-05-17T03:01:04.213Z,65.69
2019-05-17T03:03:33.950Z,66.22
2019-05-17T03:06:03.724Z,66.12
2019-05-17T03:08:34.352Z,65.58
2019-05-17T03:11:04.926Z,65.29
2019-05-17T03:13:34.562Z,65.54
2019-05-17T03:16:04.439Z,65.92
2019-05-17T03:18:34.156Z,65.82
2019-05-17T03:21:04.388Z,65.50
2019-05-17T03:23:34.413Z,66.07
2019-05-17T03:26:04.238Z,65.08
2019-05-17T03:28:34.321Z,64.21
2019-05-17T03:31:07.678Z,64.58
2019-05-17T03:33:37.556Z,64.52
2019-05-17T03:36:07.786Z,65.81
2019-05-17T03:38:37.628Z,65.81
2019-05-17T03:41:18.249Z,66.44
2019-05-17T03:43:41.243Z,66.12
2019-05-17T03:46:13.589Z,65.45
2019-05-17T03:48:43.586Z,64.61
2019-05-17T03:51:13.565Z,65.05
2019-05-17T03:53:44.207Z,65.41
2019-05-17T03:56:14.210Z,65.55
2019-05-17T03:58:43.914Z,65.22
2019-05-17T04:01:14.273Z,64.56
2019-05-17T04:03:44.428Z,65.52
2019-05-17T04:06:14.120Z,65.86
2019-05-17T04:08:43.768Z,65.64
2019-05-17T04:11:26.640Z,66.02
2019-05-17T04:13:44.756Z,65.92
2019-05-17T04:16:14.474Z,66.00
2019-05-17T04:18:44.295Z,65.64
2019-05-17T04:21:13.914Z,64.93
2019-05-17T04:23:43.559Z,65.39
2019-05-17T04:26:13.708Z,66.15
2019-05-17T04:28:44.250Z,66.22
2019-05-17T04:31:14.089Z,66.56
2019-05-17T04:33:43.739Z,66.43
2019-05-17T04:36:13.517Z,66.77
2019-05-17T04:38:43.743Z,66.59
2019-05-17T04:41:13.602Z,66.63
2019-05-17T04:43:43.438Z,66.84
2019-05-17T04:46:13.254Z,67.30
2019-05-17T04:48:43.927Z,67.42
2019-05-17T04:51:13.946Z,67.09
2019-05-17T04:53:43.540Z,66.88
2019-05-17T04:56:14.137Z,67.61
2019-05-17T04:58:44.158Z,66.82
2019-05-17T05:01:13.816Z,67.24
2019-05-17T05:03:43.466Z,67.19
2019-05-17T05:06:13.610Z,67.51
2019-05-17T05:08:43.427Z,67.66
2019-05-17T05:11:13.111Z,67.76
2019-05-17T05:13:42.862Z,67.59
2019-05-17T05:16:13.426Z,67.82
2019-05-17T05:18:43.464Z,67.75
2019-05-17T05:21:13.156Z,68.09
2019-05-17T05:23:42.786Z,68.13
2019-05-17T05:26:12.491Z,68.10
2019-05-17T05:28:42.153Z,67.94
2019-05-17T05:31:13.254Z,67.94
2019-05-17T05:33:43.158Z,68.13
2019-05-17T05:36:12.789Z,67.82
2019-05-17T05:38:42.433Z,67.69
2019-05-17T05:41:12.303Z,67.62
2019-05-17T05:43:42.160Z,67.57
2019-05-17T05:46:11.855Z,67.49
2019-05-17T05:48:41.713Z,67.70
2019-05-17T05:51:13.686Z,68.09
2019-05-17T05:53:42.871Z,68.26
2019-05-17T05:56:13.276Z,68.30
2019-05-17T05:58:43.218Z,68.41
2019-05-17T06:01:13.028Z,68.47
2019-05-17T06:03:42.750Z,68.41
2019-05-17T06:06:12.560Z,68.62
2019-05-17T06:08:42.170Z,68.54
2019-05-17T06:11:12.350Z,68.77
2019-05-17T06:13:42.091Z,68.73
2019-05-17T06:16:12.084Z,68.81
2019-05-17T06:18:42.505Z,68.90
2019-05-17T06:21:12.381Z,69.45
2019-05-17T06:23:42.553Z,69.11
2019-05-17T06:26:12.622Z,69.14
2019-05-17T06:28:42.804Z,69.37
2019-05-17T06:31:15.036Z,69.20
2019-05-17T06:33:43.811Z,69.40
2019-05-17T06:36:13.798Z,69.26
2019-05-17T06:38:43.655Z,69.48
2019-05-17T06:41:13.289Z,68.90
2019-05-17T06:43:42.927Z,68.78
2019-05-17T06:46:12.608Z,68.56
2019-05-17T06:48:42.498Z,68.49
2019-05-17T06:51:12.279Z,68.49
2019-05-17T06:53:43.606Z,69.22
2019-05-17T06:56:13.429Z,68.87
2019-05-17T06:58:43.056Z,68.95
2019-05-17T07:01:12.716Z,69.08
2019-05-17T07:03:42.343Z,68.13
2019-05-17T07:06:13.645Z,68.48
2019-05-17T07:08:43.263Z,67.22
2019-05-17T07:11:12.928Z,66.64
2019-05-17T07:13:42.550Z,66.59
2019-05-17T07:16:12.884Z,65.90
2019-05-17T07:18:42.585Z,65.74
2019-05-17T07:21:12.217Z,65.33
2019-05-17T07:23:42.140Z,65.78
2019-05-17T07:26:12.162Z,66.13
2019-05-17T07:28:41.898Z,65.92
2019-05-17T07:31:11.531Z,65.04
2019-05-17T07:33:41.178Z,63.43
2019-05-17T07:36:10.810Z,64.33
2019-05-17T07:38:40.458Z,64.39
2019-05-17T07:41:10.265Z,64.50
2019-05-17T07:43:40.533Z,64.53
2019-05-17T07:46:10.293Z,64.78
2019-05-17T07:48:40.499Z,64.21
2019-05-17T07:51:10.432Z,64.24
2019-05-17T07:53:40.247Z,63.31
2019-05-17T07:56:10.378Z,63.48
2019-05-17T07:58:40.534Z,62.30
2019-05-17T08:01:10.271Z,62.73
2019-05-17T08:03:40.608Z,62.07
2019-05-17T08:06:10.884Z,62.16
2019-05-17T08:08:41.033Z,62.53
2019-05-17T08:11:10.968Z,61.88
2019-05-17T08:13:40.592Z,60.78
2019-05-17T08:16:10.483Z,61.26
2019-05-17T08:18:40.384Z,60.82
2019-05-17T08:21:10.455Z,60.76
2019-05-17T08:23:40.338Z,60.77
2019-05-17T08:26:10.643Z,59.40
2019-05-17T08:28:40.769Z,60.62
2019-05-17T08:31:10.479Z,58.84
2019-05-17T08:33:40.604Z,59.06
2019-05-17T08:36:10.676Z,58.51
2019-05-17T08:38:40.336Z,58.25
2019-05-17T08:41:10.543Z,58.38
2019-05-17T08:43:46.604Z,58.80
2019-05-17T08:46:11.742Z,57.14
2019-05-17T08:48:41.397Z,57.41
2019-05-17T08:51:11.182Z,57.76
2019-05-17T08:53:40.893Z,57.64
2019-05-17T08:56:10.661Z,57.47
2019-05-17T08:58:40.552Z,57.98
2019-05-17T09:01:11.203Z,56.71
2019-05-17T09:03:41.344Z,57.75
2019-05-17T09:06:12.540Z,56.83
2019-05-17T09:08:42.529Z,56.78
2019-05-17T09:11:12.167Z,56.55
2019-05-17T09:13:54.649Z,56.71
2019-05-17T09:16:13.167Z,56.86
2019-05-17T09:18:42.787Z,55.59
2019-05-17T09:21:12.496Z,55.42
2019-05-17T09:23:42.919Z,55.88
2019-05-17T09:26:12.578Z,56.49
2019-05-17T09:28:42.204Z,55.97
2019-05-17T09:31:11.832Z,55.33
2019-05-17T09:33:41.479Z,55.89
2019-05-17T09:36:11.469Z,55.89
2019-05-17T09:38:41.103Z,55.61
2019-05-17T09:41:10.737Z,55.04
2019-05-17T09:43:40.425Z,54.75
2019-05-17T09:46:10.766Z,54.78
2019-05-17T09:48:40.647Z,54.59
2019-05-17T09:51:10.600Z,54.48
2019-05-17T09:53:40.325Z,53.82
2019-05-17T09:56:10.096Z,54.50
2019-05-17T09:58:40.044Z,54.56
2019-05-17T10:01:10.017Z,53.36
2019-05-17T10:03:39.879Z,54.24
2019-05-17T10:06:09.866Z,52.43
2019-05-17T10:08:39.565Z,53.00
2019-05-17T10:11:11.989Z,54.09
2019-05-17T10:13:40.573Z,52.92
2019-05-17T10:16:10.256Z,52.31
2019-05-17T10:18:40.206Z,53.19
2019-05-17T10:21:10.499Z,52.92
2019-05-17T10:23:40.797Z,51.98
2019-05-17T10:26:10.541Z,51.61
2019-05-17T10:28:40.194Z,52.38
2019-05-17T10:31:11.662Z,52.33
2019-05-17T10:33:41.256Z,53.14
2019-05-17T10:36:10.877Z,51.60
2019-05-17T10:38:40.531Z,51.61
2019-05-17T10:41:10.333Z,52.62
2019-05-17T10:43:40.003Z,51.33
2019-05-17T10:46:10.548Z,50.89
2019-05-17T10:48:41.251Z,50.55
2019-05-17T10:51:13.411Z,49.79
2019-05-17T10:53:42.551Z,50.24
2019-05-17T10:56:12.270Z,49.76
2019-05-17T10:58:42.261Z,49.25
2019-05-17T11:01:11.909Z,48.25
2019-05-17T11:03:41.529Z,48.18
2019-05-17T11:06:11.257Z,47.87
2019-05-17T11:08:40.997Z,48.66
2019-05-17T11:11:10.756Z,48.17
2019-05-17T11:13:40.400Z,47.33
2019-05-17T11:16:10.015Z,47.65
2019-05-17T11:18:39.827Z,48.02
2019-05-17T11:21:09.847Z,47.67
2019-05-17T11:23:39.502Z,46.75
2019-05-17T11:26:09.204Z,47.47
2019-05-17T11:28:38.857Z,46.71
2019-05-17T11:31:08.547Z,46.17
2019-05-17T11:33:38.200Z,45.35
2019-05-17T11:36:07.824Z,45.83
2019-05-17T11:38:37.493Z,44.58
2019-05-17T11:41:20.540Z,42.72
2019-05-17T11:43:38.519Z,43.18
2019-05-17T11:46:08.352Z,43.08
2019-05-17T11:48:38.013Z,42.68
2019-05-17T11:51:07.655Z,42.49
2019-05-17T11:53:37.338Z,41.38
2019-05-17T11:56:07.190Z,41.00
2019-05-17T11:58:36.812Z,40.80
2019-05-17T12:01:06.467Z,39.92
2019-05-17T12:03:36.090Z,42.01
2019-05-17T12:06:05.960Z,40.79
2019-05-17T12:08:35.588Z,40.01
2019-05-17T12:11:05.370Z,40.25
2019-05-17T12:13:34.997Z,39.33
2019-05-17T12:16:04.873Z,38.39
2019-05-17T12:18:34.528Z,37.49
2019-05-17T12:21:04.196Z,36.77
2019-05-17T12:23:33.823Z,37.68
2019-05-17T12:26:03.511Z,37.45
2019-05-17T12:28:33.159Z,39.00
2019-05-17T12:31:02.792Z,39.35
2019-05-17T12:33:32.498Z,39.92
2019-05-17T12:36:02.126Z,40.57
2019-05-17T12:38:31.769Z,41.08
2019-05-17T12:41:01.388Z,40.44
2019-05-17T12:43:31.031Z,40.05
2019-05-17T12:46:01.797Z,40.38
2019-05-17T12:48:31.590Z,40.79
2019-05-17T12:51:01.215Z,41.03
2019-05-17T12:53:30.840Z,41.08
2019-05-17T12:56:00.489Z,40.67
2019-05-17T12:58:30.109Z,41.51
2019-05-17T13:00:59.754Z,41.78
2019-05-17T13:03:29.389Z,42.30
2019-05-17T13:05:59.031Z,42.42
2019-05-17T13:08:28.659Z,42.28
2019-05-17T13:10:58.305Z,44.38
2019-05-17T13:13:28.001Z,44.50
2019-05-17T13:15:57.673Z,46.09
2019-05-17T13:18:27.287Z,44.49
2019-05-17T13:20:56.908Z,42.85
2019-05-17T13:23:26.556Z,42.65
2019-05-17T13:25:56.172Z,42.30
2019-05-17T13:28:25.818Z,42.26
2019-05-17T13:30:55.441Z,41.76
2019-05-17T13:33:28.537Z,41.02
2019-05-17T13:35:56.452Z,41.04
2019-05-17T13:38:26.098Z,40.05
2019-05-17T13:40:55.748Z,40.05
2019-05-17T13:43:25.417Z,39.22
2019-05-17T13:45:55.103Z,41.92
2019-05-17T13:48:24.744Z,41.96
2019-05-17T13:50:54.427Z,41.77
2019-05-17T13:53:24.049Z,40.93
2019-05-17T13:55:53.806Z,41.06
2019-05-17T13:58:23.445Z,42.40
2019-05-17T14:00:53.095Z,41.42
2019-05-17T14:03:22.724Z,41.88
2019-05-17T14:05:52.370Z,38.11
2019-05-17T14:08:22.002Z,37.26
2019-05-17T14:10:51.641Z,39.73
2019-05-17T14:13:21.268Z,40.94
2019-05-17T14:15:50.879Z,42.79
2019-05-17T14:18:21.012Z,48.17
2019-05-17T14:20:50.628Z,46.69
2019-05-17T14:23:20.282Z,45.18
2019-05-17T14:25:49.895Z,46.42
2019-05-17T14:28:19.557Z,46.51
2019-05-17T14:30:49.165Z,49.01
2019-05-17T14:33:18.810Z,47.01
2019-05-17T14:35:48.425Z,47.06
2019-05-17T14:38:18.112Z,45.82
2019-05-17T14:41:05.677Z,45.84
2019-05-17T14:43:19.524Z,46.83
2019-05-17T14:45:49.210Z,46.71
2019-05-17T14:48:18.862Z,45.83
2019-05-17T14:50:48.508Z,47.63
2019-05-17T14:53:18.192Z,46.29
2019-05-17T14:55:47.859Z,45.37
2019-05-17T14:58:17.498Z,44.98
2019-05-17T15:00:47.124Z,43.19
2019-05-17T15:03:16.831Z,43.58
2019-05-17T15:05:46.501Z,44.11
2019-05-17T15:08:16.515Z,43.02
2019-05-17T15:10:46.140Z,43.03
2019-05-17T15:13:15.846Z,43.64
2019-05-17T15:15:45.503Z,44.32
2019-05-17T15:18:15.146Z,44.95
2019-05-17T15:20:44.835Z,45.79
2019-05-17T15:23:14.479Z,45.87
2019-05-17T15:25:44.102Z,46.08
2019-05-17T15:28:13.751Z,46.73
2019-05-17T15:30:43.370Z,46.84
2019-05-17T15:33:13.046Z,46.99
2019-05-17T15:35:42.722Z,46.14
2019-05-17T15:38:12.411Z,46.63
2019-05-17T15:40:42.594Z,46.63
2019-05-17T15:43:12.281Z,46.39
2019-05-17T15:45:41.996Z,47.44
2019-05-17T15:48:11.738Z,48.33
2019-05-17T15:50:41.557Z,50.95
2019-05-17T15:53:11.182Z,50.54
2019-05-17T15:55:40.829Z,50.64
2019-05-17T15:58:10.450Z,51.94
2019-05-17T16:00:40.170Z,51.77
2019-05-17T16:03:09.795Z,51.92
2019-05-17T16:05:39.446Z,51.94
2019-05-17T16:08:09.077Z,51.78
2019-05-17T16:10:39.638Z,52.01
2019-05-17T16:13:09.397Z,52.38
2019-05-17T16:15:39.042Z,55.99
2019-05-17T16:18:08.664Z,57.41
2019-05-17T16:20:38.280Z,57.58
2019-05-17T16:23:08.028Z,59.07
2019-05-17T16:25:38.447Z,60.01
2019-05-17T16:28:08.098Z,59.47
2019-05-17T16:30:37.717Z,61.85
2019-05-17T16:33:07.439Z,59.96
2019-05-17T16:35:37.070Z,61.05
2019-05-17T16:38:06.719Z,63.85
2019-05-17T16:40:36.368Z,62.75
2019-05-17T16:43:17.572Z,61.82
2019-05-17T16:45:37.555Z,62.14
2019-05-17T16:48:07.358Z,67.06
2019-05-17T16:50:37.005Z,65.12
2019-05-17T16:53:07.038Z,64.24
2019-05-17T16:55:36.775Z,65.99
2019-05-17T16:58:06.604Z,64.63
2019-05-17T17:00:42.405Z,66.28
2019-05-17T17:03:12.162Z,65.37
2019-05-17T17:05:42.000Z,64.95
2019-05-17T17:08:11.732Z,65.52
2019-05-17T17:10:41.410Z,65.24
2019-05-17T17:13:11.195Z,66.94
2019-05-17T17:15:40.885Z,66.43
2019-05-17T17:18:10.670Z,65.85
2019-05-17T17:20:40.296Z,66.37
2019-05-17T17:23:10.014Z,66.66
2019-05-17T17:25:39.698Z,66.79
2019-05-17T17:28:09.458Z,67.11
2019-05-17T17:30:39.112Z,67.06
2019-05-17T17:33:08.733Z,68.53
2019-05-17T17:35:38.381Z,68.27
2019-05-17T17:38:08.000Z,68.01
2019-05-17T17:40:37.725Z,67.91
2019-05-17T17:43:07.426Z,67.43
2019-05-17T17:45:37.384Z,66.18
2019-05-17T17:48:07.284Z,66.37
2019-05-17T17:50:36.930Z,67.18
2019-05-17T17:53:08.177Z,68.13
2019-05-17T17:55:38.312Z,68.06
2019-05-17T17:58:08.010Z,67.37
2019-05-17T18:00:37.754Z,67.59
2019-05-17T18:03:07.430Z,66.35
2019-05-17T18:05:37.051Z,67.35
2019-05-17T18:08:06.842Z,67.24
2019-05-17T18:10:36.776Z,67.85
2019-05-17T18:13:06.426Z,68.13
2019-05-17T18:15:46.233Z,66.86
2019-05-17T18:18:16.712Z,67.93
2019-05-17T18:20:46.486Z,67.92
2019-05-17T18:23:20.925Z,67.70
2019-05-17T18:25:47.664Z,67.64
2019-05-17T18:28:17.389Z,66.82
2019-05-17T18:30:47.051Z,67.30
2019-05-17T18:33:16.750Z,67.67
2019-05-17T18:35:46.532Z,68.59
2019-05-17T18:38:19.764Z,68.00
2019-05-17T18:40:49.440Z,68.74
2019-05-17T18:43:19.198Z,68.38
2019-05-17T18:45:49.013Z,68.28
2019-05-17T18:48:18.785Z,67.04
2019-05-17T18:50:48.559Z,62.68
2019-05-17T18:53:18.261Z,63.32
2019-05-17T18:55:48.028Z,65.54
2019-05-17T18:58:17.724Z,66.66
2019-05-17T19:00:47.721Z,67.31
2019-05-17T19:03:17.435Z,67.68
2019-05-17T19:05:47.053Z,67.40
2019-05-17T19:08:16.694Z,67.87
2019-05-17T19:10:46.462Z,67.52
2019-05-17T19:13:16.102Z,67.58
2019-05-17T19:15:46.466Z,67.91
2019-05-17T19:18:16.252Z,67.98
2019-05-17T19:20:46.115Z,69.13
2019-05-17T19:23:15.828Z,69.74
2019-05-17T19:25:45.470Z,71.17
2019-05-17T19:28:15.106Z,70.83
2019-05-17T19:30:44.732Z,71.24
2019-05-17T19:33:14.403Z,72.32
2019-05-17T19:35:44.023Z,71.52
2019-05-17T19:38:13.722Z,72.42
2019-05-17T19:40:43.442Z,73.67
2019-05-17T19:43:13.059Z,73.38
2019-05-17T19:45:44.706Z,73.43
2019-05-17T19:48:14.341Z,73.68
2019-05-17T19:50:44.202Z,73.24
2019-05-17T19:53:13.828Z,74.03
2019-05-17T19:55:43.538Z,74.63
2019-05-17T19:58:13.165Z,74.81
2019-05-17T20:00:42.895Z,74.58
2019-05-17T20:03:12.515Z,74.54
2019-05-17T20:05:42.138Z,74.79
2019-05-17T20:08:11.780Z,74.83
2019-05-17T20:10:41.570Z,75.36
2019-05-17T20:13:11.211Z,75.25
2019-05-17T20:15:40.981Z,76.02
2019-05-17T20:18:11.078Z,76.07
2019-05-17T20:20:40.856Z,75.44
2019-05-17T20:23:10.501Z,75.40
2019-05-17T20:25:40.152Z,75.41
2019-05-17T20:28:09.792Z,75.87
2019-05-17T20:30:39.421Z,74.79
2019-05-17T20:33:09.087Z,74.81
2019-05-17T20:35:38.703Z,74.50
2019-05-17T20:38:08.352Z,74.91
2019-05-17T20:40:38.193Z,75.46
2019-05-17T20:43:07.813Z,75.56
2019-05-17T20:45:37.524Z,75.40
2019-05-17T20:48:07.138Z,75.40
2019-05-17T20:50:36.861Z,74.88
2019-05-17T20:53:17.836Z,74.32
2019-05-17T20:55:37.876Z,74.53
2019-05-17T20:58:07.502Z,74.58
2019-05-17T21:00:37.259Z,74.71
2019-05-17T21:03:06.919Z,74.82
2019-05-17T21:05:36.530Z,74.88
2019-05-17T21:08:06.243Z,75.00
2019-05-17T21:10:35.860Z,74.50
2019-05-17T21:13:05.582Z,74.75
2019-05-17T21:15:47.008Z,74.76
2019-05-17T21:18:06.656Z,74.83
2019-05-17T21:20:36.273Z,74.97
2019-05-17T21:23:05.971Z,75.01
2019-05-17T21:25:35.658Z,74.73
2019-05-17T21:28:05.315Z,74.94
2019-05-17T21:30:35.026Z,75.40
2019-05-17T21:33:04.725Z,75.17
2019-05-17T21:35:34.356Z,75.20
2019-05-17T21:38:04.052Z,75.12
2019-05-17T21:40:33.695Z,74.96
2019-05-17T21:43:03.305Z,74.94
2019-05-17T21:45:32.954Z,75.55
2019-05-17T21:48:02.572Z,75.50
2019-05-17T21:50:32.240Z,75.38
2019-05-17T21:53:03.507Z,76.03
2019-05-17T21:55:33.120Z,75.69
2019-05-17T21:58:02.836Z,75.47
2019-05-17T22:01:04.636Z,75.30
2019-05-17T22:03:34.255Z,74.97
2019-05-17T22:06:03.875Z,75.20
2019-05-17T22:08:33.518Z,75.15
2019-05-17T22:11:03.156Z,75.30
2019-05-17T22:13:32.936Z,75.51
2019-05-17T22:16:17.133Z,75.70
2019-05-17T22:18:34.057Z,75.87
2019-05-17T22:21:03.670Z,75.29
2019-05-17T22:23:33.316Z,75.50
2019-05-17T22:26:02.934Z,75.51
2019-05-17T22:28:32.562Z,75.78
2019-05-17T22:31:02.951Z,76.80
2019-05-17T22:33:32.570Z,76.75
2019-05-17T22:36:02.214Z,77.06
2019-05-17T22:38:31.835Z,76.79
2019-05-17T22:41:01.506Z,77.04
2019-05-17T22:43:31.129Z,76.64
2019-05-17T22:46:00.774Z,76.42
2019-05-17T22:48:30.395Z,75.84
2019-05-17T22:51:00.044Z,75.99
2019-05-17T22:53:29.665Z,76.70
2019-05-17T22:55:59.278Z,77.25
2019-05-17T22:58:28.941Z,76.72
2019-05-17T23:00:58.561Z,76.81
2019-05-17T23:03:28.207Z,77.07
2019-05-17T23:05:57.822Z,76.72
2019-05-17T23:08:27.479Z,76.68
2019-05-17T23:10:57.106Z,76.50
2019-05-17T23:13:26.743Z,76.17
2019-05-17T23:16:03.954Z,76.17
2019-05-17T23:18:34.911Z,76.20
2019-05-17T23:21:04.941Z,76.53
2019-05-17T23:23:34.715Z,76.22
2019-05-17T23:26:04.482Z,76.26
2019-05-17T23:28:34.143Z,75.99
2019-05-17T23:31:03.827Z,75.77
2019-05-17T23:33:33.453Z,75.65
2019-05-17T23:36:03.186Z,76.00
2019-05-17T23:38:32.812Z,75.98
2019-05-17T23:41:02.460Z,75.22
2019-05-17T23:43:32.080Z,75.31
2019-05-17T23:46:01.717Z,75.30
2019-05-17T23:48:31.346Z,75.13
2019-05-17T23:51:00.988Z,75.16
2019-05-17T23:53:30.607Z,75.59
2019-05-17T23:56:00.251Z,76.14
2019-05-17T23:58:29.883Z,76.26
